Terminal Aerodrome Forecast
Issued by NWS

Home | Current Version | Previous Version | Text Only | Print | Product List | Glossary On
Versions: 1 2 3 4 5 6 7 8 9 10 11 12 13 14 15 16 17 18 19
027
FTUS41 KBTV 082321
TAFMPV
TAF
KMPV 082321Z 0900/0924 26007KT P6SM VCSH OVC060
     FM091200 29010G17KT P6SM OVC030
     FM091500 30013G23KT P6SM OVC035=

USA.gov is the U.S. government's official web portal to all federal, state and local government web resources and services.